createdAt,value
2019-02-08T00:01:41.963Z,89.16
2019-02-08T00:04:11.271Z,89.13
2019-02-08T00:06:40.620Z,89.11
2019-02-08T00:09:10.874Z,89.15
2019-02-08T00:11:40.093Z,89.15
2019-02-08T00:14:09.763Z,89.19
2019-02-08T00:16:39.233Z,89.19
2019-02-08T00:19:08.531Z,89.19
2019-02-08T00:21:37.955Z,89.18
2019-02-08T00:24:07.285Z,89.16
2019-02-08T00:26:36.504Z,89.19
2019-02-08T00:29:07.293Z,89.23
2019-02-08T00:31:36.511Z,89.26
2019-02-08T00:34:06.219Z,89.32
2019-02-08T00:36:35.505Z,89.30
2019-02-08T00:39:09.531Z,89.30
2019-02-08T00:41:38.820Z,89.32
2019-02-08T00:44:08.229Z,89.33
2019-02-08T00:46:37.461Z,89.39
2019-02-08T00:49:06.783Z,89.44
2019-02-08T00:51:36.094Z,89.48
2019-02-08T00:54:05.642Z,89.50
2019-02-08T00:56:35.420Z,89.49
2019-02-08T00:59:05.250Z,89.49
2019-02-08T01:01:34.462Z,89.54
2019-02-08T01:04:03.829Z,89.54
2019-02-08T01:06:33.150Z,89.59
2019-02-08T01:09:03.036Z,89.62
2019-02-08T01:11:32.235Z,89.64
2019-02-08T01:14:01.421Z,89.69
2019-02-08T01:16:30.820Z,89.71
2019-02-08T01:19:00.014Z,89.74
2019-02-08T01:21:29.255Z,89.77
2019-02-08T01:23:58.727Z,89.76
2019-02-08T01:26:27.913Z,89.77
2019-02-08T01:28:57.100Z,89.77
2019-02-08T01:31:26.625Z,89.77
2019-02-08T01:33:55.844Z,89.75
2019-02-08T01:36:25.032Z,89.74
2019-02-08T01:38:54.524Z,89.76
2019-02-08T01:41:23.710Z,89.77
2019-02-08T01:43:53.336Z,89.77
2019-02-08T01:46:22.639Z,89.75
2019-02-08T01:48:51.938Z,89.70
2019-02-08T01:51:21.128Z,89.69
2019-02-08T01:53:50.630Z,89.61
2019-02-08T01:56:19.828Z,89.61
2019-02-08T01:58:49.044Z,89.57
2019-02-08T02:01:18.403Z,89.60
2019-02-08T02:03:47.596Z,89.69
2019-02-08T02:06:16.795Z,89.77
2019-02-08T02:08:46.432Z,89.80
2019-02-08T02:11:15.644Z,89.79
2019-02-08T02:13:44.824Z,89.81
2019-02-08T02:16:14.342Z,89.81
2019-02-08T02:18:43.561Z,89.81
2019-02-08T02:21:12.775Z,89.83
2019-02-08T02:23:42.226Z,89.80
2019-02-08T02:26:11.426Z,89.83
2019-02-08T02:28:40.630Z,89.82
2019-02-08T02:31:10.124Z,89.81
2019-02-08T02:33:39.324Z,89.77
2019-02-08T02:36:08.536Z,89.81
2019-02-08T02:38:37.959Z,89.80
2019-02-08T02:41:07.206Z,89.83
2019-02-08T02:43:36.403Z,89.79
2019-02-08T02:46:05.769Z,89.81
2019-02-08T02:48:34.948Z,89.78
2019-02-08T02:51:04.186Z,89.74
2019-02-08T02:53:33.632Z,89.72
2019-02-08T02:56:02.816Z,89.67
2019-02-08T02:58:32.044Z,89.59
2019-02-08T03:01:01.389Z,89.67
2019-02-08T03:03:30.568Z,89.66
2019-02-08T03:05:59.804Z,89.66
2019-02-08T03:08:29.319Z,89.69
2019-02-08T03:10:59.029Z,89.70
2019-02-08T03:13:28.216Z,89.70
2019-02-08T03:15:57.639Z,89.68
2019-02-08T03:18:26.843Z,89.67
2019-02-08T03:20:56.060Z,89.65
2019-02-08T03:23:25.656Z,89.63
2019-02-08T03:25:54.905Z,89.62
2019-02-08T03:28:24.141Z,89.60
2019-02-08T03:30:58.462Z,89.54
2019-02-08T03:33:27.829Z,89.58
2019-02-08T03:35:57.011Z,89.53
2019-02-08T03:38:26.550Z,89.59
2019-02-08T03:40:56.070Z,89.56
2019-02-08T03:43:25.282Z,89.59
2019-02-08T03:45:54.634Z,89.57
2019-02-08T03:48:24.087Z,89.57
2019-02-08T03:50:53.312Z,89.55
2019-02-08T03:53:22.870Z,89.57
2019-02-08T03:55:57.995Z,89.56
2019-02-08T03:58:23.005Z,89.57
2019-02-08T04:01:06.283Z,89.62
2019-02-08T04:03:35.571Z,89.61
2019-02-08T04:06:05.496Z,89.58
2019-02-08T04:08:35.053Z,89.59
2019-02-08T04:11:04.644Z,89.54
2019-02-08T04:13:33.977Z,89.58
2019-02-08T04:16:03.453Z,89.58
2019-02-08T04:18:32.626Z,89.60
2019-02-08T04:21:01.820Z,89.60
2019-02-08T04:23:31.271Z,89.60
2019-02-08T04:26:00.456Z,89.64
2019-02-08T04:28:29.662Z,89.62
2019-02-08T04:30:59.153Z,89.68
2019-02-08T04:33:28.348Z,89.64
2019-02-08T04:35:59.216Z,89.63
2019-02-08T04:38:28.556Z,89.64
2019-02-08T04:40:57.857Z,89.66
2019-02-08T04:43:27.186Z,89.62
2019-02-08T04:45:56.705Z,89.62
2019-02-08T04:48:25.894Z,89.64
2019-02-08T04:50:55.086Z,89.62
2019-02-08T04:53:24.614Z,89.59
2019-02-08T04:55:53.792Z,89.56
2019-02-08T04:58:23.059Z,89.57
2019-02-08T05:00:53.539Z,89.58
2019-02-08T05:03:22.728Z,89.60
2019-02-08T05:05:51.935Z,89.58
2019-02-08T05:08:21.419Z,89.56
2019-02-08T05:10:50.621Z,89.54
2019-02-08T05:13:19.842Z,89.46
2019-02-08T05:15:49.286Z,89.46
2019-02-08T05:18:18.534Z,89.46
2019-02-08T05:20:47.749Z,89.47
2019-02-08T05:23:17.514Z,89.39
2019-02-08T05:25:46.709Z,89.38
2019-02-08T05:28:16.308Z,89.31
2019-02-08T05:30:45.831Z,89.23
2019-02-08T05:33:15.077Z,89.07
2019-02-08T05:35:44.295Z,89.11
2019-02-08T05:38:13.732Z,89.06
2019-02-08T05:40:42.929Z,89.00
2019-02-08T05:43:12.136Z,88.98
2019-02-08T05:45:41.767Z,88.91
2019-02-08T05:48:10.966Z,88.85
2019-02-08T05:50:40.167Z,88.83
2019-02-08T05:53:09.629Z,88.74
2019-02-08T05:55:38.823Z,88.56
2019-02-08T05:58:08.110Z,88.54
2019-02-08T06:01:09.920Z,88.52
2019-02-08T06:03:39.138Z,88.46
2019-02-08T06:06:08.365Z,88.40
2019-02-08T06:08:37.767Z,88.40
2019-02-08T06:11:06.998Z,88.33
2019-02-08T06:13:36.197Z,88.33
2019-02-08T06:16:05.993Z,88.37
2019-02-08T06:18:35.297Z,88.29
2019-02-08T06:21:04.858Z,88.25
2019-02-08T06:23:34.412Z,88.06
2019-02-08T06:26:03.642Z,88.02
2019-02-08T06:28:32.863Z,87.87
2019-02-08T06:31:02.189Z,87.85
2019-02-08T06:33:31.399Z,87.89
2019-02-08T06:36:00.604Z,87.81
2019-02-08T06:38:29.990Z,87.87
2019-02-08T06:40:59.195Z,87.97
2019-02-08T06:43:28.387Z,87.82
2019-02-08T06:45:59.598Z,87.79
2019-02-08T06:48:28.808Z,87.90
2019-02-08T06:51:00.600Z,87.92
2019-02-08T06:53:29.840Z,87.97
2019-02-08T06:55:59.043Z,87.98
2019-02-08T06:58:41.644Z,87.91
2019-02-08T07:01:36.145Z,87.96
2019-02-08T07:04:37.143Z,87.90
2019-02-08T07:07:17.458Z,87.78
2019-02-08T07:09:54.900Z,87.45
2019-02-08T07:12:41.765Z,87.46
2019-02-08T07:15:29.015Z,87.46
2019-02-08T07:18:16.131Z,87.50
2019-02-08T07:21:22.829Z,87.47
2019-02-08T07:24:20.389Z,87.44
2019-02-08T07:27:24.086Z,87.43
2019-02-08T07:30:12.248Z,87.29
2019-02-08T07:32:59.645Z,87.34
2019-02-08T07:35:47.797Z,87.39
2019-02-08T07:38:37.978Z,87.32
2019-02-08T07:41:28.649Z,87.32
2019-02-08T07:44:17.157Z,87.18
2019-02-08T07:47:10.242Z,87.14
2019-02-08T07:50:03.867Z,86.91
2019-02-08T07:52:55.298Z,86.92
2019-02-08T07:55:53.148Z,87.01
2019-02-08T07:58:40.103Z,86.99
2019-02-08T08:01:37.666Z,86.83
2019-02-08T08:04:43.061Z,86.90
2019-02-08T08:07:20.759Z,87.21
2019-02-08T08:10:20.915Z,87.43
2019-02-08T08:12:58.680Z,86.10
2019-02-08T08:15:48.015Z,85.95
2019-02-08T08:18:38.564Z,85.76
2019-02-08T08:21:32.895Z,84.68
2019-02-08T08:24:31.163Z,84.32
2019-02-08T08:27:25.401Z,84.44
2019-02-08T08:30:21.762Z,84.49
2019-02-08T08:33:08.871Z,83.85
2019-02-08T08:36:17.697Z,84.47
2019-02-08T08:39:27.584Z,84.81
2019-02-08T08:42:21.761Z,83.21
2019-02-08T08:45:26.852Z,83.38
2019-02-08T08:48:41.632Z,83.13
2019-02-08T08:51:56.748Z,83.06
2019-02-08T08:55:13.098Z,83.07
2019-02-08T08:58:11.282Z,82.72
2019-02-08T09:01:16.388Z,82.56
2019-02-08T09:04:01.511Z,82.45
2019-02-08T09:07:35.877Z,82.68
2019-02-08T09:10:39.314Z,82.38
2019-02-08T09:13:57.654Z,82.24
2019-02-08T09:16:52.444Z,82.41
2019-02-08T09:20:08.965Z,82.01
2019-02-08T09:23:37.157Z,81.86
2019-02-08T09:26:39.694Z,81.76
2019-02-08T09:29:48.312Z,81.98
2019-02-08T09:32:37.014Z,81.78
2019-02-08T09:35:34.472Z,82.02
2019-02-08T09:38:44.637Z,81.92
2019-02-08T09:42:00.441Z,82.12
2019-02-08T09:45:09.580Z,81.98
2019-02-08T09:48:03.557Z,81.94
2019-02-08T09:51:32.618Z,81.52
2019-02-08T09:54:38.251Z,81.42
2019-02-08T09:57:43.310Z,81.52
2019-02-08T10:00:51.992Z,81.44
2019-02-08T10:04:15.221Z,81.26
2019-02-08T10:07:08.274Z,80.50
2019-02-08T10:10:15.945Z,80.62
2019-02-08T10:13:30.438Z,80.42
2019-02-08T10:16:35.958Z,80.47
2019-02-08T10:19:51.158Z,80.00
2019-02-08T10:23:19.643Z,80.21
2019-02-08T10:26:14.796Z,80.28
2019-02-08T10:29:26.641Z,80.33
2019-02-08T10:32:31.382Z,80.26
2019-02-08T10:35:42.637Z,80.07
2019-02-08T10:38:52.545Z,80.21
2019-02-08T10:41:48.042Z,80.46
2019-02-08T10:45:06.548Z,80.22
2019-02-08T10:48:14.974Z,80.02
2019-02-08T10:51:34.681Z,79.97
2019-02-08T10:54:49.371Z,79.92
2019-02-08T10:57:46.490Z,80.00
2019-02-08T11:01:05.334Z,80.00
2019-02-08T11:04:27.114Z,80.21
2019-02-08T11:07:27.751Z,79.87
2019-02-08T11:10:28.177Z,80.10
2019-02-08T11:13:34.429Z,80.10
2019-02-08T11:16:36.401Z,80.15
2019-02-08T11:19:20.210Z,80.46
2019-02-08T11:21:51.034Z,80.71
2019-02-08T11:24:22.982Z,80.98
2019-02-08T11:26:52.823Z,81.29
2019-02-08T11:29:22.493Z,81.62
2019-02-08T11:31:51.967Z,81.79
2019-02-08T11:34:21.203Z,81.83
2019-02-08T11:36:50.418Z,82.04
2019-02-08T11:39:20.749Z,82.12
2019-02-08T11:41:51.187Z,82.22
2019-02-08T11:44:22.433Z,82.39
2019-02-08T11:46:52.756Z,82.42
2019-02-08T11:49:22.088Z,82.54
2019-02-08T11:51:51.541Z,82.97
2019-02-08T11:54:20.732Z,82.52
2019-02-08T11:56:49.972Z,81.91
2019-02-08T11:59:19.343Z,81.93
2019-02-08T12:01:50.988Z,81.70
2019-02-08T12:04:20.643Z,80.96
2019-02-08T12:06:49.902Z,81.05
2019-02-08T12:09:19.186Z,81.05
2019-02-08T12:11:48.496Z,80.89
2019-02-08T12:14:17.839Z,80.78
2019-02-08T12:16:47.016Z,80.65
2019-02-08T12:19:16.451Z,80.49
2019-02-08T12:21:45.644Z,79.79
2019-02-08T12:24:16.326Z,79.75
2019-02-08T12:26:45.675Z,79.77
2019-02-08T12:29:14.881Z,79.63
2019-02-08T12:31:44.389Z,80.05
2019-02-08T12:34:13.937Z,79.43
2019-02-08T12:36:43.165Z,79.11
2019-02-08T12:39:12.809Z,78.34
2019-02-08T12:41:42.876Z,78.25
2019-02-08T12:44:12.432Z,78.28
2019-02-08T12:46:41.857Z,78.83
2019-02-08T12:49:11.294Z,78.99
2019-02-08T12:51:40.549Z,78.80
2019-02-08T12:54:09.831Z,78.60
2019-02-08T12:56:45.438Z,78.79
2019-02-08T12:59:10.197Z,79.01
2019-02-08T13:01:39.619Z,79.16
2019-02-08T13:04:08.885Z,79.20
2019-02-08T13:06:38.094Z,79.34
2019-02-08T13:09:11.524Z,79.36
2019-02-08T13:11:40.830Z,79.41
2019-02-08T13:14:10.008Z,79.15
2019-02-08T13:16:39.298Z,78.98
2019-02-08T13:19:08.541Z,77.96
2019-02-08T13:21:37.885Z,77.50
2019-02-08T13:24:07.535Z,77.35
2019-02-08T13:26:36.939Z,76.99
2019-02-08T13:29:06.390Z,76.37
2019-02-08T13:31:36.851Z,76.21
2019-02-08T13:34:15.663Z,75.93
2019-02-08T13:36:51.315Z,75.58
2019-02-08T13:39:21.766Z,75.30
2019-02-08T13:41:51.324Z,75.33
2019-02-08T13:44:24.592Z,75.66
2019-02-08T13:46:57.528Z,75.15
2019-02-08T13:49:31.875Z,74.74
2019-02-08T13:52:03.452Z,75.32
2019-02-08T13:54:33.113Z,75.07
2019-02-08T13:57:04.612Z,75.14
2019-02-08T13:59:34.562Z,75.32
2019-02-08T14:02:04.177Z,75.58
2019-02-08T14:04:33.883Z,75.55
2019-02-08T14:07:05.677Z,75.95
2019-02-08T14:09:34.976Z,76.30
2019-02-08T14:12:06.736Z,76.13
2019-02-08T14:14:36.524Z,76.36
2019-02-08T14:17:10.023Z,76.58
2019-02-08T14:19:40.582Z,76.90
2019-02-08T14:22:13.152Z,77.21
2019-02-08T14:24:48.540Z,77.55
2019-02-08T14:27:18.297Z,77.91
2019-02-08T14:30:04.876Z,78.21
2019-02-08T14:32:35.008Z,78.62
2019-02-08T14:35:08.395Z,78.46
2019-02-08T14:37:40.133Z,78.27
2019-02-08T14:40:12.555Z,78.50
2019-02-08T14:42:45.017Z,78.33
2019-02-08T14:45:15.845Z,78.54
2019-02-08T14:47:52.967Z,78.34
2019-02-08T14:50:24.353Z,78.39
2019-02-08T14:52:58.527Z,78.53
2019-02-08T14:55:29.421Z,78.38
2019-02-08T14:58:02.424Z,78.50
2019-02-08T15:00:31.749Z,78.56
2019-02-08T15:03:06.325Z,78.75
2019-02-08T15:05:35.613Z,78.72
2019-02-08T15:08:08.055Z,78.72
2019-02-08T15:10:40.022Z,78.50
2019-02-08T15:13:11.896Z,78.59
2019-02-08T15:15:41.441Z,77.98
2019-02-08T15:18:12.292Z,77.69
2019-02-08T15:20:42.026Z,77.50
2019-02-08T15:23:14.879Z,77.40
2019-02-08T15:25:46.568Z,77.53
2019-02-08T15:28:16.207Z,77.51
2019-02-08T15:30:45.924Z,77.23
2019-02-08T15:33:15.707Z,77.27
2019-02-08T15:35:46.995Z,77.04
2019-02-08T15:38:18.116Z,76.97
2019-02-08T15:40:53.525Z,76.96
2019-02-08T15:43:25.368Z,77.00
2019-02-08T15:45:59.070Z,76.78
2019-02-08T15:48:29.295Z,76.99
2019-02-08T15:51:01.264Z,76.74
2019-02-08T15:53:33.204Z,76.72
2019-02-08T15:56:10.220Z,76.59
2019-02-08T15:58:40.529Z,76.57
2019-02-08T16:01:12.789Z,76.62
2019-02-08T16:03:42.541Z,76.68
2019-02-08T16:06:12.418Z,76.91
2019-02-08T16:08:45.094Z,76.90
2019-02-08T16:11:16.936Z,77.07
2019-02-08T16:13:46.530Z,77.18
2019-02-08T16:16:18.000Z,77.19
2019-02-08T16:18:48.011Z,77.34
2019-02-08T16:21:25.172Z,77.30
2019-02-08T16:23:59.943Z,77.41
2019-02-08T16:26:29.820Z,77.50
2019-02-08T16:29:03.061Z,77.40
2019-02-08T16:31:33.922Z,77.46
2019-02-08T16:34:04.005Z,77.62
2019-02-08T16:36:36.663Z,77.63
2019-02-08T16:39:12.994Z,77.63
2019-02-08T16:41:45.826Z,77.62
2019-02-08T16:44:17.372Z,77.69
2019-02-08T16:46:51.602Z,77.68
2019-02-08T16:49:26.620Z,77.64
2019-02-08T16:51:55.881Z,77.60
2019-02-08T16:54:25.826Z,77.59
2019-02-08T16:56:55.303Z,77.59
2019-02-08T16:59:25.579Z,77.64
2019-02-08T17:01:56.743Z,77.70
2019-02-08T17:04:26.062Z,77.69
2019-02-08T17:06:59.458Z,77.77
2019-02-08T17:09:42.464Z,77.89
2019-02-08T17:12:11.905Z,77.80
2019-02-08T17:14:41.126Z,77.75
2019-02-08T17:17:13.615Z,77.77
2019-02-08T17:19:43.166Z,77.76
2019-02-08T17:22:12.459Z,77.79
2019-02-08T17:24:41.778Z,77.98
2019-02-08T17:27:11.308Z,78.02
2019-02-08T17:29:41.948Z,78.12
2019-02-08T17:32:14.605Z,78.21
2019-02-08T17:34:49.144Z,78.22
2019-02-08T17:37:19.625Z,78.21
2019-02-08T17:39:48.901Z,78.31
2019-02-08T17:42:19.646Z,78.35
2019-02-08T17:44:49.139Z,78.40
2019-02-08T17:47:19.565Z,78.51
2019-02-08T17:50:00.273Z,78.69
2019-02-08T17:52:29.568Z,78.74
2019-02-08T17:55:00.431Z,78.79
2019-02-08T17:57:40.180Z,78.90
2019-02-08T18:00:39.468Z,78.96
2019-02-08T18:03:08.829Z,78.88
2019-02-08T18:05:39.251Z,78.81
2019-02-08T18:08:13.706Z,78.82
2019-02-08T18:10:43.167Z,78.76
2019-02-08T18:13:12.924Z,78.70
2019-02-08T18:15:44.320Z,78.72
2019-02-08T18:18:28.758Z,78.68
2019-02-08T18:21:09.716Z,78.60
2019-02-08T18:23:42.422Z,78.58
2019-02-08T18:26:36.998Z,78.62
2019-02-08T18:29:06.476Z,78.48
2019-02-08T18:31:47.455Z,78.51
2019-02-08T18:34:18.993Z,78.40
2019-02-08T18:36:49.210Z,78.30
2019-02-08T18:39:20.256Z,78.07
2019-02-08T18:41:49.489Z,77.99
2019-02-08T18:44:19.522Z,77.46
2019-02-08T18:46:55.508Z,77.45
2019-02-08T18:49:47.342Z,77.35
2019-02-08T18:52:25.421Z,77.39
2019-02-08T18:54:57.708Z,77.29
2019-02-08T18:57:45.603Z,77.28
2019-02-08T19:00:19.292Z,77.40
2019-02-08T19:02:52.179Z,77.35
2019-02-08T19:05:45.522Z,77.42
2019-02-08T19:08:45.464Z,77.46
2019-02-08T19:12:02.740Z,77.51
2019-02-08T19:14:43.099Z,77.56
2019-02-08T19:17:37.983Z,77.63
2019-02-08T19:20:21.434Z,77.81
2019-02-08T19:22:51.312Z,77.96
2019-02-08T19:25:26.684Z,77.96
2019-02-08T19:27:56.614Z,78.08
2019-02-08T19:30:31.475Z,78.15
2019-02-08T19:33:24.394Z,78.26
2019-02-08T19:35:59.208Z,78.35
2019-02-08T19:38:35.272Z,78.44
2019-02-08T19:41:18.354Z,78.52
2019-02-08T19:44:01.955Z,78.56
2019-02-08T19:47:04.466Z,78.67
2019-02-08T19:49:33.861Z,78.74
2019-02-08T19:52:12.485Z,78.68
2019-02-08T19:55:45.771Z,78.74
2019-02-08T20:01:57.135Z,78.84
2019-02-08T20:04:30.685Z,78.85
2019-02-08T20:07:01.644Z,78.87
2019-02-08T20:09:54.369Z,78.89
2019-02-08T20:15:25.837Z,78.97
2019-02-08T20:17:57.084Z,78.96
2019-02-08T20:20:31.490Z,78.96
2019-02-08T20:23:11.757Z,79.02
2019-02-08T20:29:20.877Z,79.05
2019-02-08T20:32:33.099Z,78.98
2019-02-08T20:46:17.508Z,79.22
2019-02-08T20:48:49.768Z,79.19
2019-02-08T20:54:47.668Z,79.46
2019-02-08T20:57:28.228Z,79.60
2019-02-08T21:00:30.769Z,79.72
2019-02-08T21:03:50.479Z,79.80
2019-02-08T21:07:04.123Z,79.82
2019-02-08T21:10:20.792Z,79.82
2019-02-08T21:13:09.294Z,79.88
2019-02-08T21:16:21.542Z,79.92
2019-02-08T21:19:04.336Z,80.00
2019-02-08T21:21:53.033Z,80.05
2019-02-08T21:24:39.798Z,80.10
2019-02-08T21:27:17.670Z,80.19
2019-02-08T21:29:56.773Z,80.29
2019-02-08T21:32:40.753Z,80.31
2019-02-08T21:35:10.585Z,80.36
2019-02-08T21:37:42.402Z,80.35
2019-02-08T21:40:16.185Z,80.32
2019-02-08T21:42:48.503Z,80.36
2019-02-08T21:45:28.863Z,80.38
2019-02-08T21:47:59.607Z,80.35
2019-02-08T21:50:29.807Z,80.39
2019-02-08T21:53:00.072Z,80.40
2019-02-08T21:55:32.597Z,80.44
2019-02-08T21:58:01.986Z,80.52
2019-02-08T22:00:33.276Z,80.57
2019-02-08T22:03:05.817Z,80.59
2019-02-08T22:05:56.558Z,80.63
2019-02-08T22:08:25.778Z,80.68
2019-02-08T22:10:54.980Z,80.70
2019-02-08T22:13:24.555Z,80.68
2019-02-08T22:15:53.866Z,80.73
2019-02-08T22:18:29.942Z,80.76
2019-02-08T22:20:59.310Z,80.76
2019-02-08T22:23:28.512Z,80.78
2019-02-08T22:25:58.002Z,80.80
2019-02-08T22:28:27.290Z,80.86
2019-02-08T22:30:56.578Z,80.91
2019-02-08T22:33:26.331Z,80.97
2019-02-08T22:35:55.781Z,81.02
2019-02-08T22:38:27.997Z,81.05
2019-02-08T22:40:57.195Z,81.21
2019-02-08T22:43:26.751Z,81.21
2019-02-08T22:45:56.218Z,81.30
2019-02-08T22:48:26.742Z,81.24
2019-02-08T22:50:56.064Z,81.42
2019-02-08T22:53:25.951Z,81.50
2019-02-08T22:55:56.377Z,81.61
2019-02-08T22:58:25.942Z,81.63
2019-02-08T23:01:23.508Z,81.66
2019-02-08T23:03:54.655Z,81.75
2019-02-08T23:06:26.231Z,81.71
2019-02-08T23:08:57.521Z,81.77
2019-02-08T23:11:28.234Z,81.81
2019-02-08T23:13:58.126Z,81.88
2019-02-08T23:16:27.383Z,81.92
2019-02-08T23:18:58.265Z,81.94
2019-02-08T23:21:27.961Z,82.08
2019-02-08T23:23:57.994Z,82.19
2019-02-08T23:26:27.253Z,82.25
2019-02-08T23:28:56.285Z,82.25
2019-02-08T23:31:26.742Z,82.27
2019-02-08T23:33:58.045Z,82.33
2019-02-08T23:36:27.241Z,82.36
2019-02-08T23:38:56.922Z,82.42
2019-02-08T23:41:26.151Z,82.55
2019-02-08T23:43:55.339Z,82.62
2019-02-08T23:46:24.765Z,82.78
2019-02-08T23:48:54.006Z,82.90
2019-02-08T23:51:24.078Z,83.03
2019-02-08T23:53:53.444Z,83.16
2019-02-08T23:56:22.800Z,83.28
2019-02-08T23:58:51.994Z,83.53
